createdAt,value
2017-10-09T00:02:03.771Z,99.90
2017-10-09T00:04:31.268Z,99.90
2017-10-09T00:06:58.837Z,99.90
2017-10-09T00:09:27.626Z,99.90
2017-10-09T00:11:56.145Z,99.90
2017-10-09T00:14:23.637Z,99.90
2017-10-09T00:16:51.185Z,99.90
2017-10-09T00:19:18.666Z,99.90
2017-10-09T00:21:46.606Z,99.90
2017-10-09T00:24:14.910Z,99.90
2017-10-09T00:26:42.499Z,99.90
2017-10-09T00:29:09.965Z,99.90
2017-10-09T00:31:37.474Z,99.90
2017-10-09T00:34:05.045Z,99.90
2017-10-09T00:36:32.535Z,99.90
2017-10-09T00:39:00.005Z,99.90
2017-10-09T00:41:27.894Z,99.90
2017-10-09T00:43:55.426Z,99.90
2017-10-09T00:46:22.905Z,99.90
2017-10-09T00:48:50.437Z,99.90
2017-10-09T00:51:18.441Z,99.90
2017-10-09T00:53:45.933Z,99.90
2017-10-09T00:56:13.618Z,99.90
2017-10-09T00:58:41.853Z,99.90
2017-10-09T01:01:10.086Z,99.90
2017-10-09T01:03:37.588Z,99.90
2017-10-09T01:06:05.098Z,99.90
2017-10-09T01:08:32.584Z,99.90
2017-10-09T01:11:00.186Z,99.90
2017-10-09T01:13:29.011Z,99.90
2017-10-09T01:15:56.492Z,99.90
2017-10-09T01:18:24.033Z,99.90
2017-10-09T01:20:51.518Z,99.90
2017-10-09T01:23:19.075Z,99.90
2017-10-09T01:25:47.429Z,99.90
2017-10-09T01:28:15.029Z,99.90
2017-10-09T01:30:42.691Z,99.90
2017-10-09T01:33:10.189Z,99.90
2017-10-09T01:35:37.703Z,99.90
2017-10-09T01:38:05.239Z,99.90
2017-10-09T01:40:32.845Z,99.90
2017-10-09T01:43:02.033Z,99.90
2017-10-09T01:45:30.401Z,99.90
2017-10-09T01:47:58.328Z,99.90
2017-10-09T01:50:25.878Z,99.90
2017-10-09T01:52:53.337Z,99.90
2017-10-09T01:55:21.539Z,99.90
2017-10-09T01:57:49.062Z,99.90
2017-10-09T02:00:16.543Z,99.90
2017-10-09T02:02:44.088Z,99.90
2017-10-09T02:05:11.564Z,99.90
2017-10-09T02:07:39.837Z,99.90
2017-10-09T02:10:07.337Z,99.90
2017-10-09T02:12:35.578Z,99.90
2017-10-09T02:15:04.004Z,99.90
2017-10-09T02:17:32.273Z,99.90
2017-10-09T02:20:00.579Z,99.90
2017-10-09T02:22:28.055Z,99.90
2017-10-09T02:24:55.570Z,99.90
2017-10-09T02:27:23.914Z,99.90
2017-10-09T02:29:51.500Z,99.90
2017-10-09T02:32:19.751Z,99.90
2017-10-09T02:34:47.447Z,99.90
2017-10-09T02:37:15.691Z,99.90
2017-10-09T02:39:43.159Z,99.90
2017-10-09T02:42:11.484Z,99.90
2017-10-09T02:44:39.054Z,99.90
2017-10-09T02:47:06.527Z,99.90
2017-10-09T02:49:34.439Z,99.90
2017-10-09T02:52:03.033Z,99.90
2017-10-09T02:54:30.517Z,99.90
2017-10-09T02:56:58.082Z,99.90
2017-10-09T02:59:25.571Z,99.90
2017-10-09T03:01:53.041Z,99.90
2017-10-09T03:04:20.576Z,99.90
2017-10-09T03:06:48.058Z,99.90
2017-10-09T03:09:15.549Z,99.90
2017-10-09T03:11:43.479Z,99.90
2017-10-09T03:14:11.803Z,99.90
2017-10-09T03:16:39.306Z,99.90
2017-10-09T03:19:07.201Z,99.90
2017-10-09T03:21:35.468Z,99.90
2017-10-09T03:24:22.617Z,99.90
2017-10-09T03:27:04.848Z,99.90
2017-10-09T03:29:33.807Z,99.90
2017-10-09T03:32:01.303Z,99.90
2017-10-09T03:34:28.797Z,99.90
2017-10-09T03:36:57.074Z,99.90
2017-10-09T03:39:25.354Z,99.90
2017-10-09T03:41:53.606Z,99.90
2017-10-09T03:44:21.205Z,99.90
2017-10-09T03:46:48.711Z,99.90
2017-10-09T03:49:16.218Z,99.90
2017-10-09T03:51:44.490Z,99.90
2017-10-09T03:54:12.734Z,99.90
2017-10-09T03:56:41.755Z,99.90
2017-10-09T03:59:10.047Z,99.90
2017-10-09T04:01:37.513Z,99.90
2017-10-09T04:04:05.398Z,99.90
2017-10-09T04:06:32.914Z,99.90
2017-10-09T04:09:01.169Z,99.90
2017-10-09T04:11:28.655Z,99.90
2017-10-09T04:13:57.052Z,99.90
2017-10-09T04:16:24.567Z,99.90
2017-10-09T04:18:52.136Z,99.90
2017-10-09T04:21:21.330Z,99.90
2017-10-09T04:23:49.729Z,99.90
2017-10-09T04:26:17.223Z,99.90
2017-10-09T04:28:44.756Z,99.90
2017-10-09T04:31:12.254Z,99.90
2017-10-09T04:33:39.727Z,99.90
2017-10-09T04:36:07.278Z,99.90
2017-10-09T04:38:34.777Z,99.90
2017-10-09T04:41:02.317Z,99.90
2017-10-09T04:43:29.855Z,99.90
2017-10-09T04:45:57.330Z,99.90
2017-10-09T04:48:26.486Z,99.90
2017-10-09T04:50:54.177Z,99.90
2017-10-09T04:53:21.684Z,99.90
2017-10-09T04:55:49.189Z,99.90
2017-10-09T04:58:16.848Z,99.90
2017-10-09T05:00:44.326Z,99.90
2017-10-09T05:03:12.541Z,99.90
2017-10-09T05:05:40.278Z,99.90
2017-10-09T05:08:07.794Z,99.90
2017-10-09T05:10:35.384Z,99.90
2017-10-09T05:13:03.781Z,99.90
2017-10-09T05:15:31.339Z,99.90
2017-10-09T05:17:59.589Z,99.90
2017-10-09T05:20:27.232Z,99.90
2017-10-09T05:22:54.738Z,99.90
2017-10-09T05:25:22.313Z,99.90
2017-10-09T05:27:50.015Z,99.90
2017-10-09T05:30:17.517Z,99.90
2017-10-09T05:32:45.820Z,99.90
2017-10-09T05:35:13.308Z,99.90
2017-10-09T05:37:40.795Z,99.90
2017-10-09T05:40:09.038Z,99.90
2017-10-09T05:42:36.513Z,99.90
2017-10-09T05:45:05.527Z,99.90
2017-10-09T05:47:33.896Z,99.90
2017-10-09T05:50:02.204Z,99.90
2017-10-09T05:52:29.696Z,99.90
2017-10-09T05:54:57.185Z,99.90
2017-10-09T05:57:25.425Z,99.90
2017-10-09T05:59:52.926Z,99.90
2017-10-09T06:02:21.225Z,99.90
2017-10-09T06:04:48.693Z,99.90
2017-10-09T06:07:16.225Z,99.90
2017-10-09T06:09:44.703Z,99.90
2017-10-09T06:12:13.072Z,99.90
2017-10-09T06:14:41.348Z,99.90
2017-10-09T06:17:10.172Z,99.90
2017-10-09T06:19:37.657Z,99.90
2017-10-09T06:22:05.877Z,99.90
2017-10-09T06:24:34.263Z,99.90
2017-10-09T06:27:01.842Z,99.90
2017-10-09T06:29:29.400Z,99.90
2017-10-09T06:31:56.920Z,99.90
2017-10-09T06:34:25.298Z,99.90
2017-10-09T06:36:52.779Z,99.90
2017-10-09T06:39:20.337Z,99.90
2017-10-09T06:41:47.874Z,99.90
2017-10-09T06:44:16.946Z,99.90
2017-10-09T06:46:44.455Z,99.90
2017-10-09T06:49:12.745Z,99.90
2017-10-09T06:51:40.281Z,99.90
2017-10-09T06:54:08.553Z,99.90
2017-10-09T06:56:36.774Z,99.90
2017-10-09T06:59:04.312Z,99.90
2017-10-09T07:01:31.835Z,99.90
2017-10-09T07:04:00.067Z,99.90
2017-10-09T07:06:27.577Z,99.90
2017-10-09T07:08:55.136Z,99.90
2017-10-09T07:11:23.233Z,99.90
2017-10-09T07:13:50.752Z,99.90
2017-10-09T07:16:19.039Z,99.90
2017-10-09T07:18:47.301Z,99.90
2017-10-09T07:21:14.768Z,99.90
2017-10-09T07:23:43.091Z,99.90
2017-10-09T07:26:10.570Z,99.90
2017-10-09T07:28:38.113Z,99.90
2017-10-09T07:31:05.633Z,99.90
2017-10-09T07:33:34.148Z,99.90
2017-10-09T07:36:01.639Z,99.90
2017-10-09T07:38:29.210Z,99.90
2017-10-09T07:40:57.442Z,99.90
2017-10-09T07:43:24.941Z,99.90
2017-10-09T07:45:52.611Z,99.90
2017-10-09T07:48:20.120Z,99.90
2017-10-09T07:50:47.606Z,99.90
2017-10-09T07:53:15.179Z,99.90
2017-10-09T07:55:42.778Z,99.90
2017-10-09T07:58:10.276Z,99.90
2017-10-09T08:00:37.770Z,99.90
2017-10-09T08:03:06.014Z,99.90
2017-10-09T08:05:33.513Z,99.90
2017-10-09T08:08:01.020Z,99.80
2017-10-09T08:10:28.551Z,99.90
2017-10-09T08:12:56.034Z,99.90
2017-10-09T08:15:23.512Z,99.90
2017-10-09T08:17:51.051Z,99.90
2017-10-09T08:20:18.594Z,99.90
2017-10-09T08:22:46.977Z,99.90
2017-10-09T08:25:14.868Z,99.90
2017-10-09T08:27:42.418Z,99.70
2017-10-09T08:30:09.887Z,99.40
2017-10-09T08:32:37.357Z,99.30
2017-10-09T08:35:05.021Z,99.30
2017-10-09T08:37:33.248Z,99.40
2017-10-09T08:40:00.754Z,99.40
2017-10-09T08:42:29.022Z,99.60
2017-10-09T08:44:57.407Z,99.50
2017-10-09T08:47:25.669Z,99.50
2017-10-09T08:49:53.346Z,99.50
2017-10-09T08:52:21.855Z,99.40
2017-10-09T08:54:49.348Z,99.40
2017-10-09T08:57:16.973Z,99.20
2017-10-09T08:59:44.453Z,99.10
2017-10-09T09:02:11.999Z,99.00
2017-10-09T09:04:39.577Z,98.60
2017-10-09T09:07:07.114Z,98.30
2017-10-09T09:09:34.594Z,98.00
2017-10-09T09:12:02.497Z,98.00
2017-10-09T09:14:30.799Z,97.80
2017-10-09T09:16:59.054Z,97.60
2017-10-09T09:19:26.721Z,97.60
2017-10-09T09:21:55.044Z,97.10
2017-10-09T09:24:22.545Z,97.10
2017-10-09T09:26:50.367Z,96.90
2017-10-09T09:29:17.865Z,97.00
2017-10-09T09:31:45.348Z,97.10
2017-10-09T09:34:12.906Z,96.60
2017-10-09T09:36:41.194Z,95.50
2017-10-09T09:39:08.665Z,95.50
2017-10-09T09:41:36.152Z,95.10
2017-10-09T09:44:03.658Z,95.10
2017-10-09T09:46:31.899Z,93.90
2017-10-09T09:49:00.268Z,94.40
2017-10-09T09:51:27.852Z,94.40
2017-10-09T09:53:55.326Z,94.80
2017-10-09T09:56:23.580Z,94.20
2017-10-09T09:58:51.874Z,94.00
2017-10-09T10:01:20.156Z,94.00
2017-10-09T10:03:48.429Z,93.90
2017-10-09T10:06:15.898Z,93.90
2017-10-09T10:08:43.373Z,94.10
2017-10-09T10:11:10.954Z,93.90
2017-10-09T10:13:39.106Z,93.90
2017-10-09T10:16:06.912Z,94.30
2017-10-09T10:18:34.408Z,94.40
2017-10-09T10:21:01.944Z,94.40
2017-10-09T10:23:30.214Z,93.90
2017-10-09T10:25:58.709Z,93.80
2017-10-09T10:28:27.038Z,93.80
2017-10-09T10:30:54.511Z,93.80
2017-10-09T10:33:22.138Z,93.90
2017-10-09T10:35:49.686Z,94.20
2017-10-09T10:38:17.216Z,94.30
2017-10-09T10:40:45.830Z,94.20
2017-10-09T10:43:13.329Z,94.20
2017-10-09T10:45:40.792Z,94.40
2017-10-09T10:48:08.674Z,94.50
2017-10-09T10:50:36.928Z,94.60
2017-10-09T10:53:04.513Z,94.60
2017-10-09T10:55:32.289Z,94.50
2017-10-09T10:57:59.788Z,94.70
2017-10-09T11:00:27.276Z,94.70
2017-10-09T11:02:54.786Z,94.80
2017-10-09T11:05:22.389Z,94.90
2017-10-09T11:07:50.034Z,94.70
2017-10-09T11:10:17.750Z,94.70
2017-10-09T11:12:46.056Z,94.70
2017-10-09T11:15:13.556Z,94.70
2017-10-09T11:17:41.054Z,94.40
2017-10-09T11:20:08.644Z,94.50
2017-10-09T11:22:36.294Z,94.80
2017-10-09T11:25:03.978Z,94.60
2017-10-09T11:27:31.501Z,94.50
2017-10-09T11:29:59.003Z,94.30
2017-10-09T11:32:27.025Z,93.90
2017-10-09T11:34:54.528Z,93.40
2017-10-09T11:37:22.106Z,93.30
2017-10-09T11:39:49.696Z,93.50
2017-10-09T11:42:17.960Z,93.30
2017-10-09T11:44:46.201Z,93.30
2017-10-09T11:47:13.694Z,93.20
2017-10-09T11:49:41.914Z,92.10
2017-10-09T11:52:09.472Z,92.10
2017-10-09T11:54:37.085Z,92.30
2017-10-09T11:57:05.362Z,91.80
2017-10-09T11:59:33.635Z,91.70
2017-10-09T12:02:01.962Z,91.90
2017-10-09T12:04:29.926Z,91.90
2017-10-09T12:06:58.342Z,91.90
2017-10-09T12:09:26.062Z,91.60
2017-10-09T12:11:53.527Z,92.00
2017-10-09T12:14:21.116Z,92.20
2017-10-09T12:16:48.732Z,92.00
2017-10-09T12:19:16.194Z,91.40
2017-10-09T12:21:43.668Z,91.20
2017-10-09T12:24:11.414Z,90.80
2017-10-09T12:26:39.099Z,90.40
2017-10-09T12:29:06.584Z,91.40
2017-10-09T12:31:34.084Z,91.40
2017-10-09T12:34:01.548Z,91.40
2017-10-09T12:36:29.039Z,91.10
2017-10-09T12:38:56.527Z,91.10
2017-10-09T12:41:24.796Z,90.90
2017-10-09T12:43:53.185Z,91.40
2017-10-09T12:46:21.939Z,91.50
2017-10-09T12:48:49.455Z,91.40
2017-10-09T12:51:17.091Z,91.40
2017-10-09T12:53:45.486Z,91.10
2017-10-09T12:56:12.952Z,91.00
2017-10-09T12:58:40.807Z,90.90
2017-10-09T13:01:09.100Z,90.20
2017-10-09T13:03:36.587Z,90.20
2017-10-09T13:06:04.379Z,90.10
2017-10-09T13:08:32.606Z,90.00
2017-10-09T13:11:00.098Z,89.90
2017-10-09T13:13:27.607Z,89.60
2017-10-09T13:15:55.121Z,90.30
2017-10-09T13:18:22.633Z,90.30
2017-10-09T13:20:51.417Z,90.30
2017-10-09T13:23:18.910Z,90.00
2017-10-09T13:25:46.428Z,90.10
2017-10-09T13:28:13.979Z,90.20
2017-10-09T13:30:41.437Z,90.00
2017-10-09T13:33:08.928Z,89.40
2017-10-09T13:35:36.667Z,89.80
2017-10-09T13:38:04.138Z,89.90
2017-10-09T13:40:31.687Z,88.90
2017-10-09T13:42:59.264Z,89.70
2017-10-09T13:45:26.727Z,89.80
2017-10-09T13:47:54.268Z,90.10
2017-10-09T13:50:22.082Z,90.20
2017-10-09T13:52:49.740Z,90.60
2017-10-09T13:55:17.197Z,90.40
2017-10-09T13:57:45.111Z,90.50
2017-10-09T14:00:12.672Z,90.90
2017-10-09T14:02:40.134Z,90.30
2017-10-09T14:05:08.015Z,91.00
2017-10-09T14:07:35.967Z,91.40
2017-10-09T14:10:04.082Z,91.30
2017-10-09T14:12:31.679Z,91.50
2017-10-09T14:14:59.917Z,91.60
2017-10-09T14:17:27.467Z,91.60
2017-10-09T14:19:55.107Z,91.70
2017-10-09T14:22:22.580Z,91.90
2017-10-09T14:24:50.077Z,92.00
2017-10-09T14:27:18.428Z,92.10
2017-10-09T14:29:45.901Z,92.10
2017-10-09T14:42:06.628Z,92.20
2017-10-09T14:44:35.036Z,92.00
2017-10-09T14:47:02.589Z,92.20
2017-10-09T14:49:30.160Z,92.10
2017-10-09T14:51:57.715Z,92.10
2017-10-09T14:54:25.382Z,91.90
2017-10-09T14:56:52.940Z,91.80
2017-10-09T14:59:21.209Z,92.00
2017-10-09T15:01:49.723Z,92.40
2017-10-09T15:04:18.013Z,92.70
2017-10-09T15:06:45.533Z,92.70
2017-10-09T15:09:13.052Z,92.70
2017-10-09T15:11:40.606Z,92.70
2017-10-09T15:14:08.179Z,92.60
2017-10-09T15:16:35.704Z,92.90
2017-10-09T15:19:03.228Z,93.00
2017-10-09T15:21:30.851Z,92.90
2017-10-09T15:24:00.964Z,93.10
2017-10-09T15:26:28.512Z,93.30
2017-10-09T15:28:56.126Z,93.30
2017-10-09T15:31:24.481Z,93.20
2017-10-09T15:33:52.021Z,93.10
2017-10-09T15:36:20.356Z,93.90
2017-10-09T15:38:48.647Z,94.10
2017-10-09T15:41:16.769Z,94.10
2017-10-09T15:43:44.302Z,94.30
2017-10-09T15:46:11.825Z,94.50
2017-10-09T15:48:40.130Z,94.50
2017-10-09T15:51:07.626Z,94.50
2017-10-09T15:53:35.362Z,94.40
2017-10-09T15:56:02.904Z,94.50
2017-10-09T15:58:30.444Z,94.70
2017-10-09T16:00:58.844Z,95.20
2017-10-09T16:03:26.331Z,95.20
2017-10-09T16:05:54.754Z,95.20
2017-10-09T16:08:22.997Z,95.50
2017-10-09T16:10:50.546Z,95.40
2017-10-09T16:13:18.080Z,95.50
2017-10-09T16:15:46.274Z,95.60
2017-10-09T16:18:14.019Z,95.50
2017-10-09T16:20:41.524Z,95.10
2017-10-09T16:23:08.990Z,95.20
2017-10-09T16:25:37.282Z,95.30
2017-10-09T16:28:05.582Z,95.60
2017-10-09T16:30:33.064Z,95.50
2017-10-09T16:33:00.587Z,95.70
2017-10-09T16:35:28.114Z,95.90
2017-10-09T16:37:55.646Z,96.10
2017-10-09T16:40:23.133Z,96.20
2017-10-09T16:43:02.153Z,96.40
2017-10-09T16:45:30.334Z,96.40
2017-10-09T16:47:58.930Z,96.70
2017-10-09T16:50:27.182Z,96.80
2017-10-09T16:52:54.799Z,96.80
2017-10-09T16:55:22.293Z,96.90
2017-10-09T16:57:49.867Z,97.00
2017-10-09T17:00:18.160Z,97.30
2017-10-09T17:02:46.493Z,97.40
2017-10-09T17:05:14.006Z,97.30
2017-10-09T17:07:41.493Z,97.30
2017-10-09T17:10:09.233Z,97.60
2017-10-09T17:12:36.726Z,98.00
2017-10-09T17:15:04.292Z,98.50
2017-10-09T17:17:31.797Z,99.10
2017-10-09T17:19:59.351Z,99.50
2017-10-09T17:22:27.610Z,99.90
2017-10-09T17:24:55.875Z,99.90
2017-10-09T17:27:23.526Z,99.90
2017-10-09T17:29:51.027Z,99.90
2017-10-09T17:32:18.545Z,99.90
2017-10-09T17:34:46.077Z,99.90
2017-10-09T17:37:13.582Z,99.90
2017-10-09T17:39:41.881Z,99.90
2017-10-09T17:42:09.387Z,99.90
2017-10-09T17:44:36.963Z,99.90
2017-10-09T17:47:04.553Z,99.90
2017-10-09T17:49:33.532Z,99.90
2017-10-09T17:52:01.976Z,99.90
2017-10-09T17:54:29.468Z,99.90
2017-10-09T17:56:57.745Z,99.90
2017-10-09T17:59:26.154Z,99.90
2017-10-09T18:01:53.707Z,99.90
2017-10-09T18:04:21.339Z,99.90
2017-10-09T18:06:49.963Z,99.90
2017-10-09T18:09:17.464Z,99.90
2017-10-09T18:11:44.971Z,99.90
2017-10-09T18:14:12.613Z,99.90
2017-10-09T18:16:41.280Z,99.90
2017-10-09T18:19:08.832Z,99.90
2017-10-09T18:21:36.600Z,99.90
2017-10-09T18:24:04.094Z,99.90
2017-10-09T18:26:32.240Z,99.90
2017-10-09T18:29:00.555Z,99.90
2017-10-09T18:31:28.009Z,99.90
2017-10-09T18:33:55.521Z,99.90
2017-10-09T18:36:23.224Z,99.90
2017-10-09T18:38:55.371Z,99.90
2017-10-09T18:41:23.825Z,99.90
2017-10-09T18:43:51.837Z,99.90
2017-10-09T18:46:19.315Z,99.90
2017-10-09T18:48:47.064Z,99.90
2017-10-09T18:51:14.548Z,99.90
2017-10-09T18:53:42.248Z,99.90
2017-10-09T18:56:09.763Z,99.90
2017-10-09T18:58:37.280Z,99.90
2017-10-09T19:01:05.564Z,99.90
2017-10-09T19:03:33.142Z,99.90
2017-10-09T19:06:00.905Z,99.90
2017-10-09T19:08:28.565Z,99.90
2017-10-09T19:10:56.595Z,99.90
2017-10-09T19:13:25.071Z,99.90
2017-10-09T19:15:52.584Z,99.90
2017-10-09T19:18:20.245Z,99.90
2017-10-09T19:20:48.005Z,99.90
2017-10-09T19:23:15.482Z,99.90
2017-10-09T19:25:43.035Z,99.90
2017-10-09T19:28:10.518Z,99.90
2017-10-09T19:30:38.021Z,99.90
2017-10-09T19:33:05.528Z,99.90
2017-10-09T19:35:33.039Z,99.90
2017-10-09T19:38:00.679Z,99.90
2017-10-09T19:40:28.921Z,99.90
2017-10-09T19:42:59.323Z,99.90
2017-10-09T19:45:27.120Z,99.90
2017-10-09T19:47:54.605Z,99.90
2017-10-09T19:50:25.882Z,99.90
2017-10-09T19:52:53.879Z,99.90
2017-10-09T19:55:21.398Z,99.90
2017-10-09T19:57:48.905Z,99.90
2017-10-09T20:00:16.427Z,99.90
2017-10-09T20:02:44.230Z,99.90
2017-10-09T20:05:12.157Z,99.90
2017-10-09T20:07:39.670Z,99.90
2017-10-09T20:10:07.603Z,99.90
2017-10-09T20:12:35.099Z,99.90
2017-10-09T20:15:02.573Z,99.90
2017-10-09T20:17:30.938Z,99.90
2017-10-09T20:19:59.247Z,99.90
2017-10-09T20:22:26.756Z,99.90
2017-10-09T20:24:54.268Z,99.90
2017-10-09T20:27:22.527Z,99.90
2017-10-09T20:29:51.030Z,99.90
2017-10-09T20:32:18.509Z,99.90
2017-10-09T20:34:46.359Z,99.90
2017-10-09T20:37:13.821Z,99.90
2017-10-09T20:39:41.328Z,99.90
2017-10-09T20:42:08.828Z,99.90
2017-10-09T20:44:36.290Z,99.90
2017-10-09T20:47:04.338Z,99.90
2017-10-09T20:49:32.216Z,99.90
2017-10-09T20:52:00.523Z,99.90
2017-10-09T20:54:28.103Z,99.90
2017-10-09T20:56:57.118Z,99.90
2017-10-09T20:59:25.530Z,99.90
2017-10-09T21:01:53.022Z,99.90
2017-10-09T21:04:22.572Z,99.90
2017-10-09T21:06:50.886Z,99.90
2017-10-09T21:09:18.417Z,99.90
2017-10-09T21:11:45.894Z,99.90
2017-10-09T21:14:13.608Z,99.90
2017-10-09T21:16:41.879Z,99.90
2017-10-09T21:19:09.425Z,99.90
2017-10-09T21:21:36.901Z,99.90
2017-10-09T21:24:05.235Z,99.90
2017-10-09T21:26:32.734Z,99.90
2017-10-09T21:29:00.980Z,99.90
2017-10-09T21:31:28.470Z,99.90
2017-10-09T21:33:56.005Z,99.90
2017-10-09T21:36:23.488Z,99.90
2017-10-09T21:38:51.087Z,99.90
2017-10-09T21:41:18.631Z,99.90
2017-10-09T21:43:46.167Z,99.90
2017-10-09T21:46:14.535Z,99.90
2017-10-09T21:48:42.029Z,99.90
2017-10-09T21:51:09.516Z,99.90
2017-10-09T21:53:37.510Z,99.90
2017-10-09T21:56:05.234Z,99.90
2017-10-09T21:58:32.731Z,99.90
2017-10-09T22:01:00.329Z,99.90
2017-10-09T22:03:27.833Z,99.90
2017-10-09T22:05:55.322Z,99.90
2017-10-09T22:08:22.838Z,99.90
2017-10-09T22:10:51.205Z,99.90
2017-10-09T22:13:19.594Z,99.90
2017-10-09T22:15:47.095Z,99.90
2017-10-09T22:18:15.348Z,99.60
2017-10-09T22:20:42.894Z,99.60
2017-10-09T22:23:11.227Z,99.50
2017-10-09T22:25:39.459Z,99.30
2017-10-09T22:28:06.977Z,99.30
2017-10-09T22:30:34.453Z,99.20
2017-10-09T22:33:02.182Z,98.90
2017-10-09T22:35:30.442Z,99.20
2017-10-09T22:37:58.747Z,99.20
2017-10-09T22:40:26.222Z,99.20
2017-10-09T22:42:53.742Z,99.10
2017-10-09T22:45:22.146Z,99.10
2017-10-09T22:47:49.642Z,99.10
2017-10-09T22:50:17.111Z,99.10
2017-10-09T22:52:44.661Z,99.30
2017-10-09T22:55:12.123Z,99.30
2017-10-09T22:57:39.918Z,99.20
2017-10-09T23:00:08.170Z,99.20
2017-10-09T23:02:36.503Z,99.30
2017-10-09T23:05:04.061Z,99.20
2017-10-09T23:07:31.615Z,99.30
2017-10-09T23:09:59.552Z,99.30
2017-10-09T23:12:28.441Z,99.10
2017-10-09T23:14:56.721Z,99.10
2017-10-09T23:17:25.147Z,98.90
2017-10-09T23:19:52.678Z,98.90
2017-10-09T23:22:20.364Z,98.70
2017-10-09T23:24:47.861Z,98.50
2017-10-09T23:27:16.092Z,98.50
2017-10-09T23:29:43.581Z,98.50
2017-10-09T23:32:11.758Z,98.20
2017-10-09T23:34:40.435Z,98.40
2017-10-09T23:37:07.908Z,98.10
2017-10-09T23:39:35.379Z,98.40
2017-10-09T23:42:03.657Z,98.20
2017-10-09T23:44:32.017Z,98.30
2017-10-09T23:47:00.255Z,98.30
2017-10-09T23:49:27.749Z,98.10
2017-10-09T23:51:55.211Z,98.00
2017-10-09T23:54:22.774Z,98.40
2017-10-09T23:56:51.047Z,98.20
2017-10-09T23:59:18.602Z,98.20
